Allakaket, Alaska
Current Conditions -  °F | °C
As of 4:53 PM on Saturday 22 Nov 2014 (Local Time) from PABT Reporting Station
Clear Clear  
Wind Chill: -2°   Ceiling: Unl
Heat Index: 10°   Visibility: 10mi
Dew Point: -8°   Wind: 8mph
Humidity: 44%   Direction: 40°NE
Pressure: 29.65"   Gusts: NA
Location:  66.57°N, 152.65°W
Report Text: PABT 230153Z 04007KT 10SM CLR M12/M22 A2965 RMK AO2 SLP058 T11221222
Loading
Personal Weather Stations






























Interactive Weather Map New forecast layout! Learn more

10-Day Weather Forecast

Advertisements
Track Severe Weather on mobile